createdAt,value
2022-08-09T00:01:55.380Z,162.30
2022-08-09T00:04:33.898Z,162.27
2022-08-09T00:07:04.093Z,162.37
2022-08-09T00:09:38.756Z,161.67
2022-08-09T00:12:07.646Z,162.40
2022-08-09T00:14:38.544Z,161.90
2022-08-09T00:17:07.492Z,161.40
2022-08-09T00:19:36.392Z,162.53
2022-08-09T00:22:05.234Z,162.07
2022-08-09T00:24:33.556Z,161.17
2022-08-09T00:27:02.053Z,161.63
2022-08-09T00:30:10.090Z,161.63
2022-08-09T00:32:26.548Z,162.03
2022-08-09T00:34:56.019Z,161.13
2022-08-09T00:37:24.147Z,161.60
2022-08-09T00:40:13.334Z,161.47
2022-08-09T00:44:13.225Z,161.53
2022-08-09T00:45:28.393Z,161.43
2022-08-09T00:47:57.783Z,162.20
2022-08-09T00:50:27.359Z,161.83
2022-08-09T00:52:55.290Z,162.00
2022-08-09T00:56:03.211Z,161.77
2022-08-09T00:58:14.640Z,160.90
2022-08-09T01:00:44.915Z,160.60
2022-08-09T01:03:23.251Z,161.60
2022-08-09T01:06:17.435Z,160.97
2022-08-09T01:08:55.654Z,160.90
2022-08-09T01:11:32.416Z,160.87
2022-08-09T01:14:04.796Z,160.70
2022-08-09T01:16:37.672Z,160.70
2022-08-09T01:19:42.769Z,161.27
2022-08-09T01:22:58.419Z,160.90
2022-08-09T01:25:52.789Z,160.50
2022-08-09T01:28:26.036Z,161.07
2022-08-09T01:30:59.009Z,160.53
2022-08-09T01:33:29.667Z,161.03
2022-08-09T01:36:03.880Z,161.00
2022-08-09T01:38:39.878Z,161.03
2022-08-09T01:41:15.929Z,161.03
2022-08-09T01:43:51.580Z,160.60
2022-08-09T01:46:24.901Z,160.40
2022-08-09T01:48:56.605Z,161.03
2022-08-09T01:51:26.685Z,160.57
2022-08-09T01:53:57.979Z,160.70
2022-08-09T01:56:27.558Z,160.27
2022-08-09T01:58:58.575Z,160.63
2022-08-09T02:01:57.737Z,161.07
2022-08-09T02:04:17.603Z,160.67
2022-08-09T02:07:03.993Z,160.93
2022-08-09T02:09:41.927Z,160.23
2022-08-09T02:12:13.551Z,161.40
2022-08-09T02:14:51.978Z,161.23
2022-08-09T02:17:59.318Z,161.03
2022-08-09T02:20:11.002Z,161.07
2022-08-09T02:22:46.431Z,160.43
2022-08-09T02:25:30.310Z,161.10
2022-08-09T02:28:05.145Z,161.37
2022-08-09T02:30:38.279Z,161.20
2022-08-09T02:33:14.377Z,160.97
2022-08-09T02:36:02.632Z,161.03
2022-08-09T02:38:37.058Z,161.33
2022-08-09T02:41:15.323Z,162.03
2022-08-09T02:43:54.285Z,161.80
2022-08-09T02:46:27.458Z,161.10
2022-08-09T02:48:59.862Z,160.90
2022-08-09T02:51:37.229Z,161.63
2022-08-09T02:54:12.330Z,161.10
2022-08-09T02:56:43.862Z,160.67
2022-08-09T02:59:26.323Z,160.40
2022-08-09T03:02:09.708Z,160.13
2022-08-09T03:04:41.647Z,161.43
2022-08-09T03:07:12.442Z,161.57
2022-08-09T03:09:56.574Z,161.37
2022-08-09T03:12:29.725Z,161.83
2022-08-09T03:14:58.218Z,161.53
2022-08-09T03:17:28.588Z,162.30
2022-08-09T03:20:03.041Z,163.17
2022-08-09T03:22:41.909Z,162.03
2022-08-09T03:25:26.798Z,164.20
2022-08-09T03:28:02.457Z,162.57
2022-08-09T03:30:33.341Z,163.57
2022-08-09T03:33:17.615Z,163.37
2022-08-09T03:36:15.498Z,162.87
2022-08-09T03:38:41.893Z,161.97
2022-08-09T03:41:15.348Z,161.43
2022-08-09T03:44:03.265Z,162.63
2022-08-09T03:46:33.621Z,163.17
2022-08-09T03:49:08.180Z,164.07
2022-08-09T03:51:55.340Z,162.43
2022-08-09T03:54:31.221Z,163.03
2022-08-09T03:57:02.157Z,163.07
2022-08-09T03:59:53.251Z,161.93
2022-08-09T04:02:26.530Z,161.37
2022-08-09T04:04:58.715Z,160.30
2022-08-09T04:07:33.643Z,161.63
2022-08-09T04:10:15.409Z,160.80
2022-08-09T04:12:50.071Z,162.00
2022-08-09T04:15:38.875Z,161.93
2022-08-09T04:18:08.499Z,160.83
2022-08-09T04:20:37.648Z,162.80
2022-08-09T04:23:09.713Z,161.70
2022-08-09T04:25:38.279Z,161.53
2022-08-09T04:28:06.962Z,161.57
2022-08-09T04:30:34.912Z,162.17
2022-08-09T04:33:02.875Z,161.27
2022-08-09T04:35:32.801Z,162.03
2022-08-09T04:38:03.542Z,161.57
2022-08-09T04:40:45.776Z,161.03
2022-08-09T04:43:14.140Z,160.83
2022-08-09T04:45:53.746Z,161.97
2022-08-09T04:48:23.905Z,161.60
2022-08-09T04:51:01.691Z,161.43
2022-08-09T04:53:31.529Z,162.03
2022-08-09T04:55:59.961Z,161.23
2022-08-09T04:58:29.831Z,161.37
2022-08-09T05:00:59.688Z,161.33
2022-08-09T05:03:40.590Z,162.00
2022-08-09T05:06:12.027Z,160.73
2022-08-09T05:08:59.871Z,162.03
2022-08-09T05:11:32.359Z,161.77
2022-08-09T05:14:05.785Z,161.83
2022-08-09T05:16:58.051Z,162.03
2022-08-09T05:19:25.800Z,162.00
2022-08-09T05:21:55.493Z,161.47
2022-08-09T05:24:25.713Z,161.67
2022-08-09T05:26:54.479Z,162.23
2022-08-09T05:29:24.080Z,161.87
2022-08-09T05:32:00.924Z,162.33
2022-08-09T05:34:30.983Z,160.87
2022-08-09T05:37:02.458Z,161.37
2022-08-09T05:39:42.625Z,161.97
2022-08-09T05:42:17.912Z,162.03
2022-08-09T05:44:51.742Z,160.60
2022-08-09T05:47:21.769Z,162.20
2022-08-09T05:50:29.979Z,162.30
2022-08-09T05:52:39.359Z,161.37
2022-08-09T05:55:12.885Z,162.63
2022-08-09T05:57:51.220Z,162.50
2022-08-09T06:00:25.967Z,162.60
2022-08-09T06:02:56.983Z,162.90
2022-08-09T06:05:50.087Z,162.57
2022-08-09T06:08:13.432Z,163.77
2022-08-09T06:10:48.354Z,163.00
2022-08-09T06:13:20.313Z,163.73
2022-08-09T06:15:51.321Z,162.07
2022-08-09T06:18:25.458Z,162.80
2022-08-09T06:20:56.982Z,163.13
2022-08-09T06:23:55.093Z,163.00
2022-08-09T06:26:20.885Z,162.97
2022-08-09T06:28:50.073Z,163.07
2022-08-09T06:31:30.660Z,164.97
2022-08-09T06:33:59.870Z,164.77
2022-08-09T06:36:29.767Z,163.97
2022-08-09T06:38:58.400Z,164.47
2022-08-09T06:42:01.241Z,165.10
2022-08-09T06:44:18.233Z,165.30
2022-08-09T06:46:48.078Z,163.53
2022-08-09T06:49:29.378Z,165.87
2022-08-09T06:52:06.352Z,164.50
2022-08-09T06:54:35.779Z,164.73
2022-08-09T06:57:05.011Z,165.13
2022-08-09T07:00:54.635Z,165.20
2022-08-09T07:02:30.810Z,164.90
2022-08-09T07:04:59.817Z,165.60
2022-08-09T07:08:00.932Z,165.40
2022-08-09T07:10:22.643Z,165.60
2022-08-09T07:12:59.264Z,165.30
2022-08-09T07:16:34.945Z,166.23
2022-08-09T07:18:15.303Z,165.67
2022-08-09T07:20:47.705Z,165.93
2022-08-09T07:23:19.000Z,165.77
2022-08-09T07:25:47.825Z,165.43
2022-08-09T07:28:28.115Z,165.33
2022-08-09T07:30:56.298Z,166.03
2022-08-09T07:33:24.284Z,165.70
2022-08-09T07:35:53.877Z,166.23
2022-08-09T07:38:23.669Z,167.07
2022-08-09T07:41:08.050Z,166.40
2022-08-09T07:43:41.290Z,166.93
2022-08-09T07:46:19.432Z,166.57
2022-08-09T07:48:58.756Z,165.73
2022-08-09T07:52:04.895Z,166.13
2022-08-09T07:54:19.172Z,166.23
2022-08-09T07:56:58.632Z,166.77
2022-08-09T07:59:34.370Z,167.50
2022-08-09T08:02:19.629Z,167.50
2022-08-09T08:04:48.857Z,167.37
2022-08-09T08:08:44.413Z,168.67
2022-08-09T08:10:08.840Z,166.23
2022-08-09T08:12:42.568Z,168.20
2022-08-09T08:15:14.121Z,168.77
2022-08-09T08:17:53.476Z,167.63
2022-08-09T08:20:28.809Z,168.10
2022-08-09T08:23:03.804Z,168.13
2022-08-09T08:25:46.619Z,168.80
2022-08-09T08:28:17.951Z,169.00
2022-08-09T08:30:55.255Z,169.13
2022-08-09T08:33:24.737Z,169.17
2022-08-09T08:35:58.916Z,171.00
2022-08-09T08:38:28.211Z,171.60
2022-08-09T08:40:57.256Z,171.67
2022-08-09T08:43:27.344Z,171.03
2022-08-09T08:46:09.908Z,171.90
2022-08-09T08:48:53.575Z,172.73
2022-08-09T08:51:22.842Z,171.93
2022-08-09T08:54:03.176Z,170.23
2022-08-09T08:56:33.743Z,171.97
2022-08-09T08:59:08.008Z,171.40
2022-08-09T09:01:52.874Z,171.43
2022-08-09T09:04:26.841Z,172.27
2022-08-09T09:06:58.249Z,172.10
2022-08-09T09:10:01.877Z,172.17
2022-08-09T09:12:17.343Z,173.30
2022-08-09T09:14:46.484Z,172.97
2022-08-09T09:17:16.778Z,173.93
2022-08-09T09:19:45.119Z,171.03
2022-08-09T09:22:16.147Z,173.67
2022-08-09T09:24:45.885Z,171.43
2022-08-09T09:28:04.228Z,172.73
2022-08-09T09:30:27.495Z,173.50
2022-08-09T09:33:15.283Z,172.27
2022-08-09T09:36:01.538Z,172.37
2022-08-09T09:38:42.182Z,175.17
2022-08-09T09:41:11.142Z,174.17
2022-08-09T09:43:41.471Z,174.37
2022-08-09T09:46:50.440Z,175.37
2022-08-09T09:49:32.157Z,175.27
2022-08-09T09:52:16.736Z,174.67
2022-08-09T09:55:16.778Z,172.03
2022-08-09T09:58:16.210Z,172.80
2022-08-09T10:00:55.205Z,166.67
2022-08-09T10:03:44.665Z,166.17
2022-08-09T10:06:26.037Z,170.97
2022-08-09T10:09:02.714Z,167.97
2022-08-09T10:11:59.415Z,169.80
2022-08-09T10:14:31.003Z,172.03
2022-08-09T10:17:40.276Z,172.03
2022-08-09T10:19:59.833Z,171.23
2022-08-09T10:22:37.315Z,172.03
2022-08-09T10:25:11.849Z,173.03
2022-08-09T10:27:45.306Z,171.67
2022-08-09T10:34:07.879Z,172.63
2022-08-09T10:36:02.171Z,172.37
2022-08-09T10:38:54.800Z,171.27
2022-08-09T10:41:20.536Z,172.77
2022-08-09T10:43:58.634Z,172.33
2022-08-09T10:47:00.876Z,171.27
2022-08-09T10:49:49.712Z,172.17
2022-08-09T10:52:36.490Z,172.10
2022-08-09T10:55:24.986Z,171.83
2022-08-09T10:57:55.922Z,170.57
2022-08-09T11:00:41.836Z,171.07
2022-08-09T11:03:50.024Z,170.53
2022-08-09T11:06:24.172Z,170.73
2022-08-09T11:08:53.417Z,171.10
2022-08-09T11:11:23.983Z,170.07
2022-08-09T11:14:28.180Z,170.73
2022-08-09T11:16:57.226Z,170.47
2022-08-09T11:20:10.636Z,171.50
2022-08-09T11:23:07.122Z,172.03
2022-08-09T11:25:55.596Z,171.17
2022-08-09T11:28:54.033Z,170.53
2022-08-09T11:31:49.413Z,170.80
2022-08-09T11:34:31.423Z,170.50
2022-08-09T11:37:01.039Z,170.10
2022-08-09T11:39:33.599Z,169.83
2022-08-09T11:42:14.619Z,169.90
2022-08-09T11:44:49.033Z,170.53
2022-08-09T11:47:17.009Z,170.53
2022-08-09T11:50:54.130Z,171.13
2022-08-09T11:53:57.671Z,170.37
2022-08-09T11:56:41.454Z,168.30
2022-08-09T11:59:11.634Z,170.97
2022-08-09T12:02:17.154Z,168.83
2022-08-09T12:04:37.238Z,170.67
2022-08-09T12:07:07.941Z,175.87
2022-08-09T12:09:37.331Z,175.20
2022-08-09T12:12:12.938Z,175.07
2022-08-09T12:15:07.281Z,174.57
2022-08-09T12:17:45.737Z,175.03
2022-08-09T12:20:21.812Z,175.07
2022-08-09T12:22:53.050Z,175.27
2022-08-09T12:25:35.969Z,174.90
2022-08-09T12:29:14.624Z,175.47
2022-08-09T12:30:58.540Z,174.47
2022-08-09T12:33:35.412Z,175.73
2022-08-09T12:36:27.478Z,175.37
2022-08-09T12:39:00.820Z,175.50
2022-08-09T12:41:36.275Z,174.67
2022-08-09T12:44:09.778Z,174.53
2022-08-09T12:46:40.171Z,174.60
2022-08-09T12:49:10.275Z,174.80
2022-08-09T12:52:00.582Z,173.27
2022-08-09T12:54:26.533Z,173.67
2022-08-09T12:56:54.711Z,173.00
2022-08-09T12:59:24.441Z,172.77
2022-08-09T13:02:09.614Z,164.30
2022-08-09T13:04:39.896Z,167.77
2022-08-09T13:07:13.415Z,168.07
2022-08-09T13:09:43.338Z,168.37
2022-08-09T13:12:22.225Z,167.47
2022-08-09T13:14:54.169Z,167.27
2022-08-09T13:18:03.365Z,167.93
2022-08-09T13:20:18.947Z,166.77
2022-08-09T13:23:02.096Z,167.80
2022-08-09T13:25:42.298Z,166.37
2022-08-09T13:28:18.811Z,167.43
2022-08-09T13:32:17.994Z,168.53
2022-08-09T13:33:54.406Z,167.30
2022-08-09T13:36:40.657Z,167.83
2022-08-09T13:41:51.427Z,167.87
2022-08-09T13:42:03.062Z,168.37
2022-08-09T13:44:32.479Z,167.70
2022-08-09T13:47:17.748Z,166.67
2022-08-09T13:49:56.459Z,167.60
2022-08-09T13:52:27.292Z,167.43
2022-08-09T13:54:59.737Z,162.73
2022-08-09T13:57:35.478Z,160.67
2022-08-09T14:00:08.077Z,161.40
2022-08-09T14:02:42.906Z,163.30
2022-08-09T14:05:59.081Z,159.27
2022-08-09T14:08:17.635Z,159.03
2022-08-09T14:10:50.276Z,158.27
2022-08-09T14:13:21.835Z,160.27
2022-08-09T14:16:10.466Z,157.07
2022-08-09T14:18:39.160Z,159.83
2022-08-09T14:21:17.466Z,159.27
2022-08-09T14:23:54.189Z,159.40
2022-08-09T14:26:30.576Z,166.83
2022-08-09T14:29:03.622Z,166.37
2022-08-09T14:31:49.552Z,167.07
2022-08-09T14:34:32.366Z,163.17
2022-08-09T14:37:02.742Z,166.17
2022-08-09T14:39:45.355Z,164.57
2022-08-09T14:42:30.565Z,161.90
2022-08-09T14:46:39.588Z,163.13
2022-08-09T14:47:57.146Z,165.83
2022-08-09T14:50:25.747Z,160.03
2022-08-09T14:52:54.933Z,162.97
2022-08-09T14:55:24.160Z,162.73
2022-08-09T14:57:52.736Z,163.33
2022-08-09T15:00:22.481Z,162.67
2022-08-09T15:02:51.806Z,163.17
2022-08-09T15:05:20.307Z,161.90
2022-08-09T15:07:56.565Z,162.70
2022-08-09T15:10:27.816Z,162.37
2022-08-09T15:12:56.045Z,162.63
2022-08-09T15:15:24.615Z,162.97
2022-08-09T15:17:56.982Z,162.87
2022-08-09T15:22:01.100Z,162.53
2022-08-09T15:24:01.343Z,162.93
2022-08-09T15:26:05.169Z,163.30
2022-08-09T15:28:37.088Z,163.03
2022-08-09T15:31:17.483Z,162.90
2022-08-09T15:34:17.126Z,163.33
2022-08-09T15:36:34.532Z,163.03
2022-08-09T15:39:02.386Z,163.47
2022-08-09T15:41:32.671Z,163.07
2022-08-09T15:44:01.776Z,163.47
2022-08-09T15:46:32.366Z,162.43
2022-08-09T15:49:21.815Z,163.40
2022-08-09T15:52:04.646Z,162.30
2022-08-09T15:54:44.624Z,162.53
2022-08-09T15:57:34.492Z,162.77
2022-08-09T16:00:07.435Z,163.07
2022-08-09T16:02:35.891Z,163.20
2022-08-09T16:05:06.739Z,162.20
2022-08-09T16:07:39.057Z,162.50
2022-08-09T16:10:11.049Z,162.30
2022-08-09T16:12:50.234Z,161.93
2022-08-09T16:16:10.202Z,161.97
2022-08-09T16:18:09.517Z,161.80
2022-08-09T16:20:38.367Z,161.87
2022-08-09T16:23:10.225Z,161.77
2022-08-09T16:25:40.314Z,162.03
2022-08-09T16:28:12.089Z,161.10
2022-08-09T16:30:44.578Z,161.53
2022-08-09T16:33:15.743Z,161.57
2022-08-09T16:35:57.980Z,160.83
2022-08-09T16:38:27.992Z,161.57
2022-08-09T16:40:57.958Z,161.77
2022-08-09T16:43:27.550Z,162.10
2022-08-09T16:45:55.535Z,160.60
2022-08-09T16:48:40.919Z,162.03
2022-08-09T16:51:13.890Z,161.63
2022-08-09T16:54:02.517Z,162.53
2022-08-09T16:56:31.012Z,161.43
2022-08-09T16:59:06.497Z,161.40
2022-08-09T17:01:38.815Z,162.77
2022-08-09T17:04:06.949Z,162.00
2022-08-09T17:08:41.174Z,162.33
2022-08-09T17:09:45.784Z,162.60
2022-08-09T17:12:11.271Z,161.47
2022-08-09T17:14:47.842Z,162.10
2022-08-09T17:17:27.157Z,161.57
2022-08-09T17:20:29.893Z,161.70
2022-08-09T17:23:10.510Z,162.07
2022-08-09T17:25:43.204Z,161.83
2022-08-09T17:28:11.117Z,161.47
2022-08-09T17:30:47.931Z,161.60
2022-08-09T17:33:22.221Z,161.50
2022-08-09T17:35:51.199Z,161.20
2022-08-09T17:38:32.386Z,162.10
2022-08-09T17:41:03.323Z,161.57
2022-08-09T17:43:36.975Z,162.10
2022-08-09T17:46:09.081Z,161.97
2022-08-09T17:48:52.232Z,162.23
2022-08-09T17:51:21.671Z,161.17
2022-08-09T17:53:52.364Z,162.00
2022-08-09T17:56:27.680Z,162.03
2022-08-09T17:58:58.225Z,161.83
2022-08-09T18:02:03.654Z,161.33
2022-08-09T18:04:15.879Z,162.20
2022-08-09T18:06:54.065Z,161.47
2022-08-09T18:09:24.740Z,161.43
2022-08-09T18:12:10.199Z,161.73
2022-08-09T18:14:49.709Z,161.40
2022-08-09T18:17:27.464Z,160.97
2022-08-09T18:21:00.487Z,161.53
2022-08-09T18:23:04.857Z,161.43
2022-08-09T18:25:50.914Z,161.93
2022-08-09T18:30:41.570Z,161.53
2022-08-09T18:31:10.039Z,160.37
2022-08-09T18:33:40.303Z,161.73
2022-08-09T18:36:14.374Z,161.03
2022-08-09T18:38:57.560Z,161.20
2022-08-09T18:41:28.741Z,160.23
2022-08-09T18:43:57.375Z,160.93
2022-08-09T18:46:47.908Z,160.80
2022-08-09T18:49:14.789Z,161.50
2022-08-09T18:51:55.106Z,161.87
2022-08-09T18:54:28.505Z,161.33
2022-08-09T18:57:05.741Z,161.97
2022-08-09T18:59:37.594Z,160.87
2022-08-09T19:02:16.337Z,161.43
2022-08-09T19:04:47.895Z,161.23
2022-08-09T19:07:32.787Z,161.63
2022-08-09T19:10:16.974Z,161.50
2022-08-09T19:12:50.844Z,161.30
2022-08-09T19:15:24.602Z,160.93
2022-08-09T19:17:55.167Z,160.97
2022-08-09T19:20:26.252Z,161.17
2022-08-09T19:23:02.519Z,161.20
2022-08-09T19:26:00.938Z,160.93
2022-08-09T19:28:21.418Z,160.73
2022-08-09T19:30:49.243Z,160.93
2022-08-09T19:33:24.542Z,161.23
2022-08-09T19:35:57.834Z,161.40
2022-08-09T19:38:27.999Z,160.53
2022-08-09T19:40:57.565Z,161.30
2022-08-09T19:43:58.187Z,162.40
2022-08-09T19:46:15.859Z,161.27
2022-08-09T19:49:00.452Z,161.83
2022-08-09T19:51:31.352Z,161.57
2022-08-09T19:53:59.505Z,161.50
2022-08-09T19:56:28.529Z,161.53
2022-08-09T19:59:39.393Z,162.20
2022-08-09T20:01:52.555Z,161.27
2022-08-09T20:04:37.361Z,161.27
2022-08-09T20:07:12.378Z,161.53
2022-08-09T20:09:49.106Z,161.27
2022-08-09T20:12:27.481Z,160.80
2022-08-09T20:16:31.805Z,161.83
2022-08-09T20:17:54.702Z,161.83
2022-08-09T20:20:24.752Z,161.73
2022-08-09T20:22:56.744Z,160.60
2022-08-09T20:25:25.253Z,161.70
2022-08-09T20:27:53.509Z,161.13
2022-08-09T20:30:24.141Z,161.73
2022-08-09T20:32:53.582Z,161.70
2022-08-09T20:35:21.721Z,162.37
2022-08-09T20:38:22.043Z,161.23
2022-08-09T20:40:41.123Z,161.40
2022-08-09T20:43:18.446Z,161.13
2022-08-09T20:46:00.567Z,161.10
2022-08-09T20:48:31.838Z,162.17
2022-08-09T20:51:00.278Z,161.77
2022-08-09T20:53:36.347Z,161.60
2022-08-09T20:56:09.324Z,162.30
2022-08-09T20:58:48.577Z,161.23
2022-08-09T21:01:35.466Z,161.20
2022-08-09T21:05:49.640Z,161.60
2022-08-09T21:06:53.435Z,161.70
2022-08-09T21:09:25.011Z,161.87
2022-08-09T21:14:42.000Z,161.53
2022-08-09T21:18:20.757Z,165.23
2022-08-09T21:20:16.088Z,164.53
2022-08-09T21:22:52.434Z,165.03
2022-08-09T21:25:39.589Z,164.93
2022-08-09T21:28:15.758Z,165.07
2022-08-09T21:30:44.247Z,164.30
2022-08-09T21:33:12.986Z,163.80
2022-08-09T21:35:51.128Z,164.93
2022-08-09T21:38:31.238Z,164.50
2022-08-09T21:40:59.952Z,163.97
2022-08-09T21:43:46.697Z,164.33
2022-08-09T21:46:17.292Z,164.80
2022-08-09T21:48:49.086Z,164.40
2022-08-09T21:51:23.961Z,165.03
2022-08-09T21:53:54.748Z,164.07
2022-08-09T21:56:42.887Z,164.03
2022-08-09T21:59:16.101Z,163.80
2022-08-09T22:02:00.864Z,164.47
2022-08-09T22:04:55.375Z,163.97
2022-08-09T22:07:35.256Z,164.20
2022-08-09T22:10:08.204Z,164.50
2022-08-09T22:12:38.758Z,165.20
2022-08-09T22:15:16.905Z,164.83
2022-08-09T22:17:46.126Z,164.17
2022-08-09T22:20:21.491Z,164.47
2022-08-09T22:22:50.577Z,164.53
2022-08-09T22:26:06.971Z,163.97
2022-08-09T22:28:07.140Z,164.30
2022-08-09T22:30:36.837Z,165.57
2022-08-09T22:33:09.654Z,164.07
2022-08-09T22:36:02.760Z,163.70
2022-08-09T22:38:26.335Z,163.93
2022-08-09T22:40:57.414Z,164.20
2022-08-09T22:44:03.430Z,164.20
2022-08-09T22:48:12.250Z,162.93
2022-08-09T22:49:10.040Z,164.27
2022-08-09T22:51:39.458Z,164.37
2022-08-09T22:54:12.310Z,164.37
2022-08-09T22:56:41.743Z,163.97
2022-08-09T22:59:55.795Z,164.27
2022-08-09T23:01:59.224Z,164.10
2022-08-09T23:04:32.819Z,164.20
2022-08-09T23:07:18.601Z,163.73
2022-08-09T23:10:07.003Z,163.47
2022-08-09T23:12:34.809Z,164.00
2022-08-09T23:15:02.657Z,163.80
2022-08-09T23:17:32.228Z,163.90
2022-08-09T23:20:07.040Z,163.80
2022-08-09T23:22:36.112Z,163.37
2022-08-09T23:25:04.783Z,163.90
2022-08-09T23:27:33.327Z,164.00
2022-08-09T23:30:01.322Z,164.47
2022-08-09T23:32:29.217Z,163.43
2022-08-09T23:34:58.412Z,163.90
2022-08-09T23:37:26.365Z,163.67
2022-08-09T23:39:54.240Z,163.47
2022-08-09T23:42:22.038Z,163.77
2022-08-09T23:44:49.874Z,163.27
2022-08-09T23:47:17.848Z,163.57
2022-08-09T23:49:45.644Z,163.67
2022-08-09T23:52:14.815Z,163.67
2022-08-09T23:54:44.431Z,163.57
2022-08-09T23:57:13.373Z,163.03
